sensor_id;sensor_type;location;lat;lon;timestamp;P1;durP1;ratioP1;P2;durP2;ratioP2
47167;SDS011;32931;47.778;17.806;2022-11-24T00:01:30;64.10;;;34.45;;
47167;SDS011;32931;47.778;17.806;2022-11-24T00:04:09;60.10;;;34.45;;
47167;SDS011;32931;47.778;17.806;2022-11-24T00:06:36;66.22;;;35.50;;
47167;SDS011;32931;47.778;17.806;2022-11-24T00:09:02;70.47;;;34.58;;
47167;SDS011;32931;47.778;17.806;2022-11-24T00:11:31;66.38;;;35.70;;
47167;SDS011;32931;47.778;17.806;2022-11-24T00:13:59;70.18;;;37.30;;
47167;SDS011;32931;47.778;17.806;2022-11-24T00:16:27;63.33;;;36.75;;
47167;SDS011;32931;47.778;17.806;2022-11-24T00:18:55;65.65;;;36.13;;
47167;SDS011;32931;47.778;17.806;2022-11-24T00:21:22;65.88;;;36.63;;
47167;SDS011;32931;47.778;17.806;2022-11-24T00:23:50;66.47;;;36.10;;
47167;SDS011;32931;47.778;17.806;2022-11-24T00:26:17;62.40;;;35.15;;
47167;SDS011;32931;47.778;17.806;2022-11-24T00:28:45;66.63;;;38.20;;
47167;SDS011;32931;47.778;17.806;2022-11-24T00:31:19;70.22;;;40.03;;
47167;SDS011;32931;47.778;17.806;2022-11-24T00:33:55;73.15;;;39.67;;
47167;SDS011;32931;47.778;17.806;2022-11-24T00:36:23;78.70;;;41.03;;
47167;SDS011;32931;47.778;17.806;2022-11-24T00:38:53;75.63;;;41.83;;
47167;SDS011;32931;47.778;17.806;2022-11-24T00:41:25;70.55;;;38.50;;
47167;SDS011;32931;47.778;17.806;2022-11-24T00:43:52;73.00;;;40.10;;
47167;SDS011;32931;47.778;17.806;2022-11-24T00:46:19;71.60;;;41.30;;
47167;SDS011;32931;47.778;17.806;2022-11-24T00:48:46;76.60;;;42.22;;
47167;SDS011;32931;47.778;17.806;2022-11-24T00:51:13;71.97;;;40.08;;
47167;SDS011;32931;47.778;17.806;2022-11-24T00:53:40;79.10;;;41.13;;
47167;SDS011;32931;47.778;17.806;2022-11-24T00:56:07;70.00;;;40.38;;
47167;SDS011;32931;47.778;17.806;2022-11-24T00:58:34;79.43;;;43.42;;
47167;SDS011;32931;47.778;17.806;2022-11-24T01:01:19;77.72;;;41.00;;
47167;SDS011;32931;47.778;17.806;2022-11-24T01:03:50;75.15;;;42.50;;
47167;SDS011;32931;47.778;17.806;2022-11-24T01:06:18;84.88;;;44.22;;
47167;SDS011;32931;47.778;17.806;2022-11-24T01:08:46;81.68;;;44.30;;
47167;SDS011;32931;47.778;17.806;2022-11-24T01:13:53;86.18;;;45.55;;
47167;SDS011;32931;47.778;17.806;2022-11-24T01:16:22;84.00;;;44.15;;
47167;SDS011;32931;47.778;17.806;2022-11-24T01:18:57;86.50;;;45.25;;
47167;SDS011;32931;47.778;17.806;2022-11-24T01:21:23;88.68;;;47.05;;
47167;SDS011;32931;47.778;17.806;2022-11-24T01:23:49;95.45;;;48.72;;
47167;SDS011;32931;47.778;17.806;2022-11-24T01:26:17;89.15;;;47.45;;
47167;SDS011;32931;47.778;17.806;2022-11-24T01:28:44;91.47;;;47.35;;
47167;SDS011;32931;47.778;17.806;2022-11-24T01:31:11;88.03;;;47.78;;
47167;SDS011;32931;47.778;17.806;2022-11-24T01:33:37;88.45;;;48.03;;
47167;SDS011;32931;47.778;17.806;2022-11-24T01:36:04;97.05;;;49.08;;
47167;SDS011;32931;47.778;17.806;2022-11-24T01:38:30;93.03;;;49.05;;
47167;SDS011;32931;47.778;17.806;2022-11-24T01:41:00;90.93;;;47.83;;
47167;SDS011;32931;47.778;17.806;2022-11-24T01:43:28;95.45;;;49.63;;
47167;SDS011;32931;47.778;17.806;2022-11-24T01:45:54;100.65;;;49.10;;
47167;SDS011;32931;47.778;17.806;2022-11-24T01:48:23;95.63;;;48.55;;
47167;SDS011;32931;47.778;17.806;2022-11-24T01:53:29;95.68;;;50.42;;
47167;SDS011;32931;47.778;17.806;2022-11-24T01:55:55;95.45;;;50.70;;
47167;SDS011;32931;47.778;17.806;2022-11-24T01:58:23;99.45;;;52.28;;
47167;SDS011;32931;47.778;17.806;2022-11-24T02:00:53;106.88;;;53.30;;
47167;SDS011;32931;47.778;17.806;2022-11-24T02:03:21;103.60;;;52.10;;
47167;SDS011;32931;47.778;17.806;2022-11-24T02:05:59;101.95;;;52.95;;
47167;SDS011;32931;47.778;17.806;2022-11-24T02:11:18;98.68;;;52.55;;
47167;SDS011;32931;47.778;17.806;2022-11-24T02:13:47;109.97;;;55.38;;
47167;SDS011;32931;47.778;17.806;2022-11-24T02:16:16;105.90;;;55.00;;
47167;SDS011;32931;47.778;17.806;2022-11-24T02:18:42;109.72;;;55.40;;
47167;SDS011;32931;47.778;17.806;2022-11-24T02:21:09;99.00;;;53.50;;
47167;SDS011;32931;47.778;17.806;2022-11-24T02:28:51;112.97;;;56.45;;
47167;SDS011;32931;47.778;17.806;2022-11-24T02:31:18;105.35;;;55.30;;
47167;SDS011;32931;47.778;17.806;2022-11-24T02:33:44;111.05;;;54.80;;
47167;SDS011;32931;47.778;17.806;2022-11-24T02:36:11;111.28;;;55.75;;
47167;SDS011;32931;47.778;17.806;2022-11-24T02:38:37;107.70;;;55.05;;
47167;SDS011;32931;47.778;17.806;2022-11-24T02:41:05;106.30;;;55.15;;
47167;SDS011;32931;47.778;17.806;2022-11-24T02:43:35;110.35;;;58.30;;
47167;SDS011;32931;47.778;17.806;2022-11-24T02:46:04;106.68;;;54.28;;
47167;SDS011;32931;47.778;17.806;2022-11-24T02:48:31;104.93;;;56.00;;
47167;SDS011;32931;47.778;17.806;2022-11-24T02:50:57;111.18;;;56.65;;
47167;SDS011;32931;47.778;17.806;2022-11-24T02:53:23;107.70;;;57.28;;
47167;SDS011;32931;47.778;17.806;2022-11-24T02:55:49;106.63;;;55.88;;
47167;SDS011;32931;47.778;17.806;2022-11-24T02:58:15;114.13;;;57.65;;
47167;SDS011;32931;47.778;17.806;2022-11-24T03:00:41;106.45;;;55.30;;
47167;SDS011;32931;47.778;17.806;2022-11-24T03:03:08;102.55;;;52.13;;
47167;SDS011;32931;47.778;17.806;2022-11-24T03:05:34;93.75;;;47.78;;
47167;SDS011;32931;47.778;17.806;2022-11-24T03:08:00;86.20;;;43.97;;
47167;SDS011;32931;47.778;17.806;2022-11-24T03:10:26;77.68;;;42.00;;
47167;SDS011;32931;47.778;17.806;2022-11-24T03:12:53;72.72;;;38.13;;
47167;SDS011;32931;47.778;17.806;2022-11-24T03:15:20;67.47;;;34.72;;
47167;SDS011;32931;47.778;17.806;2022-11-24T03:17:47;57.53;;;30.73;;
47167;SDS011;32931;47.778;17.806;2022-11-24T03:20:14;49.38;;;26.23;;
47167;SDS011;32931;47.778;17.806;2022-11-24T03:22:40;43.63;;;23.38;;
47167;SDS011;32931;47.778;17.806;2022-11-24T03:25:06;42.58;;;22.75;;
47167;SDS011;32931;47.778;17.806;2022-11-24T03:27:32;39.95;;;21.05;;
47167;SDS011;32931;47.778;17.806;2022-11-24T03:29:59;44.70;;;21.38;;
47167;SDS011;32931;47.778;17.806;2022-11-24T03:32:25;40.45;;;22.25;;
47167;SDS011;32931;47.778;17.806;2022-11-24T03:34:51;54.08;;;26.73;;
47167;SDS011;32931;47.778;17.806;2022-11-24T03:37:17;49.58;;;27.48;;
47167;SDS011;32931;47.778;17.806;2022-11-24T03:39:43;56.15;;;29.60;;
47167;SDS011;32931;47.778;17.806;2022-11-24T03:42:09;60.83;;;31.42;;
47167;SDS011;32931;47.778;17.806;2022-11-24T03:44:35;64.75;;;33.17;;
47167;SDS011;32931;47.778;17.806;2022-11-24T03:47:01;66.15;;;34.50;;
47167;SDS011;32931;47.778;17.806;2022-11-24T03:49:27;63.83;;;34.25;;
47167;SDS011;32931;47.778;17.806;2022-11-24T03:51:54;66.82;;;34.65;;
47167;SDS011;32931;47.778;17.806;2022-11-24T03:54:20;64.03;;;33.95;;
47167;SDS011;32931;47.778;17.806;2022-11-24T03:56:46;68.90;;;36.58;;
47167;SDS011;32931;47.778;17.806;2022-11-24T03:59:12;75.75;;;38.83;;
47167;SDS011;32931;47.778;17.806;2022-11-24T04:01:38;75.07;;;38.92;;
47167;SDS011;32931;47.778;17.806;2022-11-24T04:04:04;76.38;;;40.92;;
47167;SDS011;32931;47.778;17.806;2022-11-24T04:06:31;76.45;;;41.75;;
47167;SDS011;32931;47.778;17.806;2022-11-24T04:08:58;91.60;;;45.35;;
47167;SDS011;32931;47.778;17.806;2022-11-24T04:11:24;87.38;;;47.03;;
47167;SDS011;32931;47.778;17.806;2022-11-24T04:14:09;97.80;;;51.85;;
47167;SDS011;32931;47.778;17.806;2022-11-24T04:16:35;103.57;;;53.33;;
47167;SDS011;32931;47.778;17.806;2022-11-24T04:19:01;102.93;;;53.70;;
47167;SDS011;32931;47.778;17.806;2022-11-24T04:21:28;102.60;;;54.50;;
47167;SDS011;32931;47.778;17.806;2022-11-24T04:23:54;103.28;;;55.40;;
47167;SDS011;32931;47.778;17.806;2022-11-24T04:26:20;104.88;;;55.03;;
47167;SDS011;32931;47.778;17.806;2022-11-24T04:28:46;103.80;;;53.55;;
47167;SDS011;32931;47.778;17.806;2022-11-24T04:31:12;104.05;;;55.33;;
47167;SDS011;32931;47.778;17.806;2022-11-24T04:33:39;105.68;;;55.20;;
47167;SDS011;32931;47.778;17.806;2022-11-24T04:36:05;105.53;;;54.25;;
47167;SDS011;32931;47.778;17.806;2022-11-24T04:38:31;107.47;;;57.28;;
47167;SDS011;32931;47.778;17.806;2022-11-24T04:41:01;108.22;;;55.85;;
47167;SDS011;32931;47.778;17.806;2022-11-24T04:43:28;111.40;;;57.22;;
47167;SDS011;32931;47.778;17.806;2022-11-24T04:45:55;108.57;;;55.80;;
47167;SDS011;32931;47.778;17.806;2022-11-24T04:48:23;108.13;;;56.33;;
47167;SDS011;32931;47.778;17.806;2022-11-24T04:50:49;110.68;;;58.15;;
47167;SDS011;32931;47.778;17.806;2022-11-24T04:53:16;108.07;;;56.97;;
47167;SDS011;32931;47.778;17.806;2022-11-24T04:55:42;113.13;;;56.90;;
47167;SDS011;32931;47.778;17.806;2022-11-24T04:58:11;107.30;;;57.30;;
47167;SDS011;32931;47.778;17.806;2022-11-24T05:00:37;107.93;;;56.17;;
47167;SDS011;32931;47.778;17.806;2022-11-24T05:03:04;114.22;;;58.33;;
47167;SDS011;32931;47.778;17.806;2022-11-24T05:05:30;116.15;;;59.45;;
47167;SDS011;32931;47.778;17.806;2022-11-24T05:07:57;115.53;;;59.70;;
47167;SDS011;32931;47.778;17.806;2022-11-24T05:10:24;117.20;;;59.28;;
47167;SDS011;32931;47.778;17.806;2022-11-24T05:13:00;108.50;;;57.67;;
47167;SDS011;32931;47.778;17.806;2022-11-24T05:15:28;114.07;;;58.50;;
47167;SDS011;32931;47.778;17.806;2022-11-24T05:17:55;107.97;;;55.60;;
47167;SDS011;32931;47.778;17.806;2022-11-24T05:20:22;97.70;;;51.05;;
47167;SDS011;32931;47.778;17.806;2022-11-24T05:22:48;101.75;;;52.17;;
47167;SDS011;32931;47.778;17.806;2022-11-24T05:25:17;99.40;;;50.80;;
47167;SDS011;32931;47.778;17.806;2022-11-24T05:27:43;93.72;;;46.75;;
47167;SDS011;32931;47.778;17.806;2022-11-24T05:30:10;85.80;;;45.35;;
47167;SDS011;32931;47.778;17.806;2022-11-24T05:32:36;88.88;;;45.33;;
47167;SDS011;32931;47.778;17.806;2022-11-24T05:35:02;80.85;;;41.67;;
47167;SDS011;32931;47.778;17.806;2022-11-24T05:37:29;82.40;;;40.75;;
47167;SDS011;32931;47.778;17.806;2022-11-24T05:39:55;75.45;;;38.20;;
47167;SDS011;32931;47.778;17.806;2022-11-24T05:42:22;72.25;;;34.90;;
47167;SDS011;32931;47.778;17.806;2022-11-24T05:45:16;53.13;;;28.67;;
47167;SDS011;32931;47.778;17.806;2022-11-24T05:47:43;58.45;;;26.60;;
47167;SDS011;32931;47.778;17.806;2022-11-24T05:50:11;48.17;;;27.05;;
47167;SDS011;32931;47.778;17.806;2022-11-24T05:52:39;45.70;;;25.58;;
47167;SDS011;32931;47.778;17.806;2022-11-24T05:55:06;55.00;;;28.10;;
47167;SDS011;32931;47.778;17.806;2022-11-24T05:57:33;46.17;;;26.38;;
47167;SDS011;32931;47.778;17.806;2022-11-24T05:59:59;49.08;;;27.92;;
47167;SDS011;32931;47.778;17.806;2022-11-24T06:02:25;57.80;;;28.88;;
47167;SDS011;32931;47.778;17.806;2022-11-24T06:04:51;51.78;;;28.15;;
47167;SDS011;32931;47.778;17.806;2022-11-24T06:07:18;55.83;;;29.77;;
47167;SDS011;32931;47.778;17.806;2022-11-24T06:09:44;53.35;;;29.38;;
47167;SDS011;32931;47.778;17.806;2022-11-24T06:12:10;50.40;;;27.98;;
47167;SDS011;32931;47.778;17.806;2022-11-24T06:14:37;50.92;;;27.95;;
47167;SDS011;32931;47.778;17.806;2022-11-24T06:17:04;51.88;;;26.75;;
47167;SDS011;32931;47.778;17.806;2022-11-24T06:19:31;49.85;;;26.52;;
47167;SDS011;32931;47.778;17.806;2022-11-24T06:21:57;45.40;;;26.58;;
47167;SDS011;32931;47.778;17.806;2022-11-24T06:24:23;44.28;;;25.92;;
47167;SDS011;32931;47.778;17.806;2022-11-24T06:26:49;44.85;;;25.45;;
47167;SDS011;32931;47.778;17.806;2022-11-24T06:29:15;42.53;;;26.00;;
47167;SDS011;32931;47.778;17.806;2022-11-24T06:31:41;41.72;;;24.23;;
47167;SDS011;32931;47.778;17.806;2022-11-24T06:34:08;47.95;;;26.98;;
47167;SDS011;32931;47.778;17.806;2022-11-24T06:36:36;43.20;;;25.55;;
47167;SDS011;32931;47.778;17.806;2022-11-24T06:39:03;49.70;;;26.15;;
47167;SDS011;32931;47.778;17.806;2022-11-24T06:41:30;42.60;;;26.35;;
47167;SDS011;32931;47.778;17.806;2022-11-24T06:43:56;44.38;;;26.75;;
47167;SDS011;32931;47.778;17.806;2022-11-24T06:46:23;51.80;;;28.48;;
47167;SDS011;32931;47.778;17.806;2022-11-24T06:48:50;44.92;;;26.98;;
47167;SDS011;32931;47.778;17.806;2022-11-24T06:51:17;49.55;;;27.40;;
47167;SDS011;32931;47.778;17.806;2022-11-24T06:53:44;47.60;;;27.77;;
47167;SDS011;32931;47.778;17.806;2022-11-24T06:56:11;49.08;;;27.63;;
47167;SDS011;32931;47.778;17.806;2022-11-24T06:58:42;46.78;;;28.17;;
47167;SDS011;32931;47.778;17.806;2022-11-24T07:01:28;47.28;;;27.95;;
47167;SDS011;32931;47.778;17.806;2022-11-24T07:03:55;49.97;;;28.85;;
47167;SDS011;32931;47.778;17.806;2022-11-24T07:06:22;51.33;;;29.55;;
47167;SDS011;32931;47.778;17.806;2022-11-24T07:08:49;44.63;;;28.23;;
47167;SDS011;32931;47.778;17.806;2022-11-24T07:11:17;48.88;;;29.67;;
47167;SDS011;32931;47.778;17.806;2022-11-24T07:13:45;46.95;;;28.65;;
47167;SDS011;32931;47.778;17.806;2022-11-24T07:16:19;51.20;;;30.83;;
47167;SDS011;32931;47.778;17.806;2022-11-24T07:18:47;47.13;;;28.80;;
47167;SDS011;32931;47.778;17.806;2022-11-24T07:21:15;48.53;;;30.27;;
47167;SDS011;32931;47.778;17.806;2022-11-24T07:23:42;43.78;;;27.77;;
47167;SDS011;32931;47.778;17.806;2022-11-24T07:26:09;48.40;;;30.80;;
47167;SDS011;32931;47.778;17.806;2022-11-24T07:28:36;47.33;;;29.27;;
47167;SDS011;32931;47.778;17.806;2022-11-24T07:31:05;47.97;;;31.38;;
47167;SDS011;32931;47.778;17.806;2022-11-24T07:33:33;50.90;;;31.20;;
47167;SDS011;32931;47.778;17.806;2022-11-24T07:36:00;50.67;;;30.27;;
47167;SDS011;32931;47.778;17.806;2022-11-24T07:38:28;44.53;;;28.98;;
47167;SDS011;32931;47.778;17.806;2022-11-24T07:41:05;44.58;;;28.17;;
47167;SDS011;32931;47.778;17.806;2022-11-24T07:43:33;40.45;;;27.52;;
47167;SDS011;32931;47.778;17.806;2022-11-24T07:46:00;40.63;;;25.92;;
47167;SDS011;32931;47.778;17.806;2022-11-24T07:48:27;49.42;;;26.98;;
47167;SDS011;32931;47.778;17.806;2022-11-24T07:50:54;43.25;;;26.48;;
47167;SDS011;32931;47.778;17.806;2022-11-24T07:53:23;39.75;;;26.23;;
47167;SDS011;32931;47.778;17.806;2022-11-24T07:55:56;45.42;;;26.08;;
47167;SDS011;32931;47.778;17.806;2022-11-24T07:58:25;41.42;;;24.20;;
47167;SDS011;32931;47.778;17.806;2022-11-24T08:00:56;37.03;;;24.02;;
47167;SDS011;32931;47.778;17.806;2022-11-24T08:03:23;32.95;;;22.65;;
47167;SDS011;32931;47.778;17.806;2022-11-24T08:05:56;38.67;;;22.15;;
47167;SDS011;32931;47.778;17.806;2022-11-24T08:08:23;34.00;;;21.15;;
47167;SDS011;32931;47.778;17.806;2022-11-24T08:10:50;34.95;;;20.90;;
47167;SDS011;32931;47.778;17.806;2022-11-24T08:13:17;31.48;;;21.77;;
47167;SDS011;32931;47.778;17.806;2022-11-24T08:15:44;31.23;;;19.25;;
47167;SDS011;32931;47.778;17.806;2022-11-24T08:18:10;28.33;;;19.15;;
47167;SDS011;32931;47.778;17.806;2022-11-24T08:20:36;30.08;;;19.35;;
47167;SDS011;32931;47.778;17.806;2022-11-24T08:23:03;32.17;;;19.90;;
47167;SDS011;32931;47.778;17.806;2022-11-24T08:25:29;23.33;;;16.48;;
47167;SDS011;32931;47.778;17.806;2022-11-24T08:27:57;24.58;;;17.27;;
47167;SDS011;32931;47.778;17.806;2022-11-24T08:30:24;27.23;;;16.58;;
47167;SDS011;32931;47.778;17.806;2022-11-24T08:32:50;24.23;;;16.88;;
47167;SDS011;32931;47.778;17.806;2022-11-24T08:35:17;23.27;;;15.80;;
47167;SDS011;32931;47.778;17.806;2022-11-24T08:37:43;25.38;;;16.45;;
47167;SDS011;32931;47.778;17.806;2022-11-24T08:40:09;28.33;;;18.45;;
47167;SDS011;32931;47.778;17.806;2022-11-24T08:42:36;26.33;;;16.35;;
47167;SDS011;32931;47.778;17.806;2022-11-24T08:45:03;27.25;;;17.20;;
47167;SDS011;32931;47.778;17.806;2022-11-24T08:47:29;22.50;;;15.18;;
47167;SDS011;32931;47.778;17.806;2022-11-24T08:49:55;22.15;;;15.20;;
47167;SDS011;32931;47.778;17.806;2022-11-24T08:52:21;21.40;;;14.05;;
47167;SDS011;32931;47.778;17.806;2022-11-24T08:54:47;21.08;;;14.18;;
47167;SDS011;32931;47.778;17.806;2022-11-24T08:57:14;17.85;;;13.18;;
47167;SDS011;32931;47.778;17.806;2022-11-24T08:59:41;20.17;;;13.52;;
47167;SDS011;32931;47.778;17.806;2022-11-24T09:02:13;19.90;;;13.98;;
47167;SDS011;32931;47.778;17.806;2022-11-24T09:04:39;22.70;;;14.95;;
47167;SDS011;32931;47.778;17.806;2022-11-24T09:07:05;22.52;;;14.40;;
47167;SDS011;32931;47.778;17.806;2022-11-24T09:09:31;20.45;;;13.73;;
47167;SDS011;32931;47.778;17.806;2022-11-24T09:11:57;19.52;;;12.70;;
47167;SDS011;32931;47.778;17.806;2022-11-24T09:14:23;21.25;;;14.02;;
47167;SDS011;32931;47.778;17.806;2022-11-24T09:16:49;18.52;;;12.27;;
47167;SDS011;32931;47.778;17.806;2022-11-24T09:19:16;26.75;;;13.40;;
47167;SDS011;32931;47.778;17.806;2022-11-24T09:21:42;22.83;;;13.25;;
47167;SDS011;32931;47.778;17.806;2022-11-24T09:24:08;17.20;;;12.95;;
47167;SDS011;32931;47.778;17.806;2022-11-24T09:26:35;17.15;;;12.35;;
47167;SDS011;32931;47.778;17.806;2022-11-24T09:29:03;19.35;;;12.18;;
47167;SDS011;32931;47.778;17.806;2022-11-24T09:31:31;18.40;;;11.95;;
47167;SDS011;32931;47.778;17.806;2022-11-24T09:34:00;19.30;;;11.93;;
47167;SDS011;32931;47.778;17.806;2022-11-24T09:36:30;23.13;;;11.85;;
47167;SDS011;32931;47.778;17.806;2022-11-24T09:38:56;20.48;;;12.20;;
47167;SDS011;32931;47.778;17.806;2022-11-24T09:49:36;16.45;;;11.88;;
47167;SDS011;32931;47.778;17.806;2022-11-24T09:52:14;16.88;;;11.50;;
47167;SDS011;32931;47.778;17.806;2022-11-24T09:54:50;15.55;;;11.05;;
47167;SDS011;32931;47.778;17.806;2022-11-24T09:57:21;17.90;;;11.57;;
47167;SDS011;32931;47.778;17.806;2022-11-24T09:59:50;17.77;;;11.10;;
47167;SDS011;32931;47.778;17.806;2022-11-24T10:02:16;17.92;;;11.57;;
47167;SDS011;32931;47.778;17.806;2022-11-24T10:04:43;13.25;;;10.18;;
47167;SDS011;32931;47.778;17.806;2022-11-24T10:26:37;17.90;;;8.88;;
47167;SDS011;32931;47.778;17.806;2022-11-24T10:31:48;15.73;;;9.43;;
47167;SDS011;32931;47.778;17.806;2022-11-24T10:34:24;18.40;;;9.60;;
47167;SDS011;32931;47.778;17.806;2022-11-24T10:37:18;13.77;;;8.68;;
47167;SDS011;32931;47.778;17.806;2022-11-24T10:42:33;17.33;;;9.93;;
47167;SDS011;32931;47.778;17.806;2022-11-24T10:45:09;12.68;;;9.82;;
47167;SDS011;32931;47.778;17.806;2022-11-24T10:47:37;13.18;;;8.93;;
47167;SDS011;32931;47.778;17.806;2022-11-24T10:50:25;13.00;;;8.73;;
47167;SDS011;32931;47.778;17.806;2022-11-24T10:58:23;14.73;;;10.15;;
47167;SDS011;32931;47.778;17.806;2022-11-24T11:00:51;17.80;;;9.70;;
47167;SDS011;32931;47.778;17.806;2022-11-24T11:03:19;13.43;;;8.95;;
47167;SDS011;32931;47.778;17.806;2022-11-24T11:05:50;14.15;;;9.77;;
47167;SDS011;32931;47.778;17.806;2022-11-24T11:10:59;17.55;;;9.18;;
47167;SDS011;32931;47.778;17.806;2022-11-24T11:13:46;14.93;;;8.82;;
47167;SDS011;32931;47.778;17.806;2022-11-24T11:19:03;13.80;;;8.90;;
47167;SDS011;32931;47.778;17.806;2022-11-24T11:22:35;15.93;;;8.65;;
47167;SDS011;32931;47.778;17.806;2022-11-24T11:24:36;9.82;;;7.20;;
47167;SDS011;32931;47.778;17.806;2022-11-24T11:27:07;14.52;;;9.02;;
47167;SDS011;32931;47.778;17.806;2022-11-24T11:29:40;14.32;;;8.10;;
47167;SDS011;32931;47.778;17.806;2022-11-24T11:32:23;13.93;;;7.93;;
47167;SDS011;32931;47.778;17.806;2022-11-24T11:34:52;16.13;;;7.80;;
47167;SDS011;32931;47.778;17.806;2022-11-24T11:37:21;14.48;;;8.20;;
47167;SDS011;32931;47.778;17.806;2022-11-24T11:39:51;13.98;;;7.82;;
47167;SDS011;32931;47.778;17.806;2022-11-24T11:47:44;9.40;;;6.47;;
47167;SDS011;32931;47.778;17.806;2022-11-24T11:50:28;9.48;;;6.18;;
47167;SDS011;32931;47.778;17.806;2022-11-24T11:55:45;13.20;;;6.40;;
47167;SDS011;32931;47.778;17.806;2022-11-24T12:01:14;7.90;;;5.70;;
47167;SDS011;32931;47.778;17.806;2022-11-24T12:04:14;7.75;;;5.75;;
47167;SDS011;32931;47.778;17.806;2022-11-24T12:28:19;7.03;;;4.22;;
47167;SDS011;32931;47.778;17.806;2022-11-24T12:31:06;7.95;;;5.20;;
47167;SDS011;32931;47.778;17.806;2022-11-24T12:37:06;9.45;;;5.22;;
47167;SDS011;32931;47.778;17.806;2022-11-24T12:45:11;8.20;;;5.25;;
47167;SDS011;32931;47.778;17.806;2022-11-24T12:50:40;6.93;;;5.00;;
47167;SDS011;32931;47.778;17.806;2022-11-24T12:55:46;9.43;;;5.15;;
47167;SDS011;32931;47.778;17.806;2022-11-24T12:58:18;8.98;;;4.65;;
47167;SDS011;32931;47.778;17.806;2022-11-24T13:01:08;7.10;;;4.68;;
47167;SDS011;32931;47.778;17.806;2022-11-24T13:03:48;8.18;;;4.68;;
47167;SDS011;32931;47.778;17.806;2022-11-24T13:06:44;7.68;;;5.32;;
47167;SDS011;32931;47.778;17.806;2022-11-24T13:09:18;7.68;;;5.30;;
47167;SDS011;32931;47.778;17.806;2022-11-24T13:11:45;7.47;;;4.55;;
47167;SDS011;32931;47.778;17.806;2022-11-24T13:16:52;7.18;;;4.60;;
47167;SDS011;32931;47.778;17.806;2022-11-24T13:19:22;7.80;;;4.85;;
47167;SDS011;32931;47.778;17.806;2022-11-24T13:22:08;8.60;;;5.45;;
47167;SDS011;32931;47.778;17.806;2022-11-24T13:24:39;8.07;;;5.50;;
47167;SDS011;32931;47.778;17.806;2022-11-24T13:29:40;8.57;;;5.10;;
47167;SDS011;32931;47.778;17.806;2022-11-24T13:39:58;8.45;;;5.80;;
47167;SDS011;32931;47.778;17.806;2022-11-24T13:42:26;7.95;;;5.60;;
47167;SDS011;32931;47.778;17.806;2022-11-24T13:52:45;8.13;;;6.05;;
47167;SDS011;32931;47.778;17.806;2022-11-24T13:57:41;9.77;;;6.63;;
47167;SDS011;32931;47.778;17.806;2022-11-24T14:00:30;8.85;;;6.57;;
47167;SDS011;32931;47.778;17.806;2022-11-24T14:05:58;11.65;;;6.93;;
47167;SDS011;32931;47.778;17.806;2022-11-24T14:08:30;18.20;;;7.63;;
47167;SDS011;32931;47.778;17.806;2022-11-24T14:11:00;11.18;;;7.28;;
47167;SDS011;32931;47.778;17.806;2022-11-24T14:18:36;8.75;;;6.32;;
47167;SDS011;32931;47.778;17.806;2022-11-24T14:21:23;9.07;;;6.45;;
47167;SDS011;32931;47.778;17.806;2022-11-24T14:23:53;10.73;;;6.45;;
47167;SDS011;32931;47.778;17.806;2022-11-24T14:26:23;9.57;;;6.50;;
47167;SDS011;32931;47.778;17.806;2022-11-24T14:31:36;11.82;;;6.93;;
47167;SDS011;32931;47.778;17.806;2022-11-24T14:36:39;10.73;;;6.93;;
47167;SDS011;32931;47.778;17.806;2022-11-24T14:39:05;9.75;;;6.72;;
47167;SDS011;32931;47.778;17.806;2022-11-24T14:41:37;11.18;;;7.25;;
47167;SDS011;32931;47.778;17.806;2022-11-24T14:46:35;10.48;;;7.22;;
47167;SDS011;32931;47.778;17.806;2022-11-24T14:49:01;12.55;;;7.82;;
47167;SDS011;32931;47.778;17.806;2022-11-24T14:51:32;11.48;;;7.82;;
47167;SDS011;32931;47.778;17.806;2022-11-24T14:54:01;10.45;;;7.70;;
47167;SDS011;32931;47.778;17.806;2022-11-24T14:56:36;13.77;;;8.15;;
47167;SDS011;32931;47.778;17.806;2022-11-24T15:01:44;12.57;;;8.27;;
47167;SDS011;32931;47.778;17.806;2022-11-24T15:06:40;55.63;;;46.22;;
47167;SDS011;32931;47.778;17.806;2022-11-24T15:11:51;45.50;;;31.85;;
47167;SDS011;32931;47.778;17.806;2022-11-24T15:14:30;43.08;;;27.08;;
47167;SDS011;32931;47.778;17.806;2022-11-24T15:16:57;23.35;;;15.27;;
47167;SDS011;32931;47.778;17.806;2022-11-24T15:19:25;17.17;;;11.90;;
47167;SDS011;32931;47.778;17.806;2022-11-24T15:21:56;23.65;;;16.08;;
47167;SDS011;32931;47.778;17.806;2022-11-24T15:24:23;24.30;;;15.68;;
47167;SDS011;32931;47.778;17.806;2022-11-24T15:26:49;27.40;;;16.75;;
47167;SDS011;32931;47.778;17.806;2022-11-24T15:29:22;15.48;;;12.15;;
47167;SDS011;32931;47.778;17.806;2022-11-24T15:31:48;16.65;;;10.00;;
47167;SDS011;32931;47.778;17.806;2022-11-24T15:34:15;17.55;;;9.25;;
47167;SDS011;32931;47.778;17.806;2022-11-24T15:36:41;14.80;;;9.30;;
47167;SDS011;32931;47.778;17.806;2022-11-24T15:39:07;15.15;;;9.40;;
47167;SDS011;32931;47.778;17.806;2022-11-24T15:41:33;15.95;;;11.25;;
47167;SDS011;32931;47.778;17.806;2022-11-24T15:43:59;24.15;;;14.25;;
47167;SDS011;32931;47.778;17.806;2022-11-24T15:46:26;93.97;;;45.45;;
47167;SDS011;32931;47.778;17.806;2022-11-24T15:48:54;60.63;;;34.00;;
47167;SDS011;32931;47.778;17.806;2022-11-24T15:51:20;82.60;;;56.63;;
47167;SDS011;32931;47.778;17.806;2022-11-24T15:53:50;104.43;;;67.15;;
47167;SDS011;32931;47.778;17.806;2022-11-24T15:56:22;88.25;;;58.42;;
47167;SDS011;32931;47.778;17.806;2022-11-24T15:58:59;39.45;;;30.25;;
47167;SDS011;32931;47.778;17.806;2022-11-24T16:01:28;27.58;;;18.67;;
47167;SDS011;32931;47.778;17.806;2022-11-24T16:03:56;19.77;;;12.52;;
47167;SDS011;32931;47.778;17.806;2022-11-24T16:06:22;17.45;;;11.48;;
47167;SDS011;32931;47.778;17.806;2022-11-24T16:08:48;16.90;;;10.60;;
47167;SDS011;32931;47.778;17.806;2022-11-24T16:11:15;18.52;;;9.52;;
47167;SDS011;32931;47.778;17.806;2022-11-24T16:13:41;13.05;;;9.15;;
47167;SDS011;32931;47.778;17.806;2022-11-24T16:16:08;13.05;;;8.85;;
47167;SDS011;32931;47.778;17.806;2022-11-24T16:18:34;19.08;;;10.07;;
47167;SDS011;32931;47.778;17.806;2022-11-24T16:21:04;19.08;;;12.90;;
47167;SDS011;32931;47.778;17.806;2022-11-24T16:23:32;24.45;;;16.55;;
47167;SDS011;32931;47.778;17.806;2022-11-24T16:25:59;21.75;;;13.02;;
47167;SDS011;32931;47.778;17.806;2022-11-24T16:28:27;19.50;;;12.43;;
47167;SDS011;32931;47.778;17.806;2022-11-24T16:30:53;21.73;;;14.05;;
47167;SDS011;32931;47.778;17.806;2022-11-24T16:33:19;25.27;;;17.42;;
47167;SDS011;32931;47.778;17.806;2022-11-24T16:35:46;29.85;;;18.73;;
47167;SDS011;32931;47.778;17.806;2022-11-24T16:38:16;43.90;;;21.42;;
47167;SDS011;32931;47.778;17.806;2022-11-24T16:40:54;29.73;;;18.08;;
47167;SDS011;32931;47.778;17.806;2022-11-24T16:43:21;27.35;;;17.60;;
47167;SDS011;32931;47.778;17.806;2022-11-24T16:45:57;26.13;;;17.17;;
47167;SDS011;32931;47.778;17.806;2022-11-24T16:48:41;27.45;;;17.80;;
47167;SDS011;32931;47.778;17.806;2022-11-24T16:51:08;29.27;;;16.85;;
47167;SDS011;32931;47.778;17.806;2022-11-24T16:53:35;23.92;;;15.32;;